Time;durP1;ratioP1;P1;durP2;ratioP2;P2;SDS_P1;SDS_P2;PMS_P1;PMS_P2;Temp;Humidity;BMP_temperature;BMP_pressure;BME280_temperature;BME280_humidity;BME280_pressure;Samples;Min_cycle;Max_cycle;Signal;HPM_P1;HPM_P2
2021/01/13 00:03:27;;;;;;;13.97;1.80;;;1.40;99.90;;;;;;4828686;29;20572;-92
2021/01/13 00:05:53;;;;;;;8.90;1.57;;;1.30;99.90;;;;;;4828050;29;20175;-93
2021/01/13 00:08:19;;;;;;;8.63;2.00;;;1.30;99.90;;;;;;4828186;29;20241;-93
2021/01/13 00:10:44;;;;;;;13.77;2.27;;;1.20;99.90;;;;;;4827796;29;20188;-93
2021/01/13 00:13:10;;;;;;;15.90;2.47;;;1.20;99.90;;;;;;4828186;29;20251;-93
2021/01/13 00:15:37;;;;;;;7.43;1.53;;;1.20;99.90;;;;;;4828023;29;20192;-93
2021/01/13 00:18:02;;;;;;;9.50;1.63;;;1.20;99.90;;;;;;4828289;29;20189;-91
2021/01/13 00:20:29;;;;;;;7.00;1.37;;;1.20;99.90;;;;;;4828266;29;20186;-92
2021/01/13 00:22:55;;;;;;;9.37;1.93;;;1.20;99.90;;;;;;4828226;29;20202;-93
2021/01/13 00:25:21;;;;;;;13.60;1.77;;;1.30;99.90;;;;;;4828097;29;20241;-92
2021/01/13 00:27:50;;;;;;;12.53;2.20;;;1.40;99.90;;;;;;4830634;29;20182;-94
2021/01/13 00:30:16;;;;;;;9.83;1.60;;;1.40;99.90;;;;;;4830895;29;20703;-92
2021/01/13 00:32:44;;;;;;;10.33;1.70;;;1.40;99.90;;;;;;4830489;29;20251;-92
2021/01/13 00:37:45;;;;;;;9.97;2.03;;;1.50;99.90;;;;;;4871226;24;20242;-96
2021/01/13 00:40:11;;;;;;;9.67;2.30;;;1.40;99.90;;;;;;4857185;29;20186;-96
2021/01/13 00:42:54;;;;;;;10.13;1.67;;;1.30;99.90;;;;;;4877876;29;20162;-96
2021/01/13 00:45:21;;;;;;;7.83;1.80;;;1.40;99.90;;;;;;4859047;29;20232;-96
2021/01/13 00:47:50;;;;;;;10.27;1.77;;;1.40;99.90;;;;;;4856725;29;20188;-95
2021/01/13 00:50:18;;;;;;;13.73;2.10;;;1.30;99.90;;;;;;4863391;29;20191;-96
2021/01/13 00:52:51;;;;;;;8.27;1.93;;;1.30;99.90;;;;;;4860553;24;20271;-94
2021/01/13 00:55:20;;;;;;;5.53;1.20;;;1.40;99.90;;;;;;4852829;29;20183;-94
2021/01/13 00:57:52;;;;;;;9.47;1.80;;;1.40;99.90;;;;;;4852309;29;20170;-94
2021/01/13 01:00:21;;;;;;;7.13;1.53;;;1.40;99.90;;;;;;4854794;29;20178;-96
2021/01/13 01:02:47;;;;;;;6.37;1.73;;;1.30;99.90;;;;;;4853148;29;20236;-95
2021/01/13 01:05:34;;;;;;;9.87;1.97;;;1.30;99.90;;;;;;4854574;29;20186;-96
2021/01/13 01:08:05;;;;;;;12.20;1.77;;;1.30;99.90;;;;;;4854349;29;20184;-95
2021/01/13 01:10:35;;;;;;;6.90;1.73;;;1.20;99.90;;;;;;4853116;29;20186;-94
2021/01/13 01:13:01;;;;;;;14.03;1.73;;;1.30;99.90;;;;;;4853459;29;20221;-95
2021/01/13 01:15:28;;;;;;;12.27;1.83;;;1.20;99.90;;;;;;4853193;29;20661;-95
2021/01/13 01:17:56;;;;;;;9.77;1.90;;;1.30;99.90;;;;;;4852159;29;20210;-95
2021/01/13 01:20:25;;;;;;;7.23;1.40;;;1.20;99.90;;;;;;4853475;29;20181;-95
2021/01/13 01:23:03;;;;;;;6.77;1.47;;;1.30;99.90;;;;;;4853106;29;20183;-96
2021/01/13 01:25:31;;;;;;;7.87;1.70;;;1.30;99.90;;;;;;4853489;29;20223;-94
2021/01/13 01:28:01;;;;;;;5.33;1.40;;;1.20;99.90;;;;;;4851981;29;20183;-94
2021/01/13 01:30:29;;;;;;;15.33;2.07;;;1.20;99.90;;;;;;4852673;29;20193;-94
2021/01/13 01:32:56;;;;;;;6.80;1.90;;;1.20;99.90;;;;;;4852328;29;20208;-95
2021/01/13 01:35:22;;;;;;;10.53;2.00;;;1.20;99.90;;;;;;4854092;29;20185;-93
2021/01/13 01:37:48;;;;;;;8.83;1.87;;;1.20;99.90;;;;;;4852778;29;20172;-95
2021/01/13 01:40:17;;;;;;;10.77;2.17;;;1.20;99.90;;;;;;4851647;29;20180;-94
2021/01/13 01:43:01;;;;;;;6.07;1.40;;;1.20;99.90;;;;;;4853886;29;20209;-95
2021/01/13 01:45:29;;;;;;;11.03;2.17;;;1.20;99.90;;;;;;4852083;29;20174;-96
2021/01/13 01:48:45;;;;;;;11.00;1.73;;;1.20;99.90;;;;;;4851063;29;20200;-95
2021/01/13 01:51:26;;;;;;;13.17;3.63;;;1.20;99.90;;;;;;4842894;29;20267;-95
2021/01/13 01:54:24;;;;;;;9.43;1.97;;;1.10;99.90;;;;;;4850895;29;20234;-94
2021/01/13 01:57:11;;;;;;;13.70;2.23;;;1.20;99.90;;;;;;4851342;29;20556;-95
2021/01/13 02:00:01;;;;;;;9.93;1.93;;;1.20;99.90;;;;;;4852189;29;20168;-96
2021/01/13 02:02:35;;;;;;;14.80;2.40;;;1.30;99.90;;;;;;4851880;29;20204;-96
2021/01/13 02:05:07;;;;;;;6.80;1.73;;;1.30;99.90;;;;;;4852362;29;20178;-93
2021/01/13 02:07:34;;;;;;;7.90;1.90;;;1.20;99.90;;;;;;4850979;29;20248;-96
2021/01/13 02:10:12;;;;;;;8.47;1.97;;;1.20;99.90;;;;;;4850800;29;20186;-94
2021/01/13 02:12:51;;;;;;;8.37;1.97;;;1.30;99.90;;;;;;4850446;29;20209;-94
2021/01/13 02:15:18;;;;;;;9.93;1.67;;;1.30;99.90;;;;;;4850159;29;20170;-94
2021/01/13 02:17:53;;;;;;;6.77;1.63;;;1.30;99.90;;;;;;4849926;29;20177;-96
2021/01/13 02:20:25;;;;;;;6.70;1.37;;;1.30;99.90;;;;;;4851045;29;20173;-94
2021/01/13 02:23:16;;;;;;;11.10;2.00;;;1.30;99.90;;;;;;4850968;29;20218;-94
2021/01/13 02:26:21;;;;;;;7.67;1.87;;;1.30;99.90;;;;;;4850147;29;20200;-93
2021/01/13 02:29:11;;;;;;;11.33;2.00;;;1.30;99.90;;;;;;4850831;29;20178;-94
2021/01/13 02:31:50;;;;;;;11.33;1.90;;;1.30;99.90;;;;;;4850644;29;20251;-96
2021/01/13 02:34:38;;;;;;;6.63;1.50;;;1.20;99.90;;;;;;4850326;29;20203;-95
2021/01/13 02:37:33;;;;;;;13.73;2.70;;;1.30;99.90;;;;;;4849705;29;20174;-95
2021/01/13 02:40:11;;;;;;;11.23;1.83;;;1.20;99.90;;;;;;4851050;29;20236;-94
2021/01/13 02:42:46;;;;;;;8.23;1.60;;;1.20;99.90;;;;;;4849391;29;20203;-95
2021/01/13 02:45:18;;;;;;;14.87;1.70;;;1.20;99.90;;;;;;4849237;29;20630;-95
2021/01/13 02:48:11;;;;;;;11.50;1.80;;;1.40;99.90;;;;;;4849627;29;20212;-95
2021/01/13 02:50:41;;;;;;;9.43;1.73;;;1.40;99.90;;;;;;4849562;29;20181;-95
2021/01/13 02:53:11;;;;;;;9.43;2.10;;;1.30;99.90;;;;;;4849575;29;20285;-95
2021/01/13 02:55:41;;;;;;;9.70;1.77;;;1.20;99.90;;;;;;4849601;29;20272;-95
2021/01/13 02:58:36;;;;;;;3.90;1.37;;;1.20;99.90;;;;;;4849485;29;20169;-96
2021/01/13 03:01:09;;;;;;;12.63;2.07;;;1.20;99.90;;;;;;4847169;29;20194;-95
2021/01/13 03:03:36;;;;;;;11.40;1.83;;;1.20;99.90;;;;;;4849797;29;20619;-95
2021/01/13 03:06:09;;;;;;;8.23;1.47;;;1.20;99.90;;;;;;4849665;29;20183;-96
2021/01/13 03:08:50;;;;;;;12.10;2.10;;;1.20;99.90;;;;;;4849591;29;20168;-94
2021/01/13 03:11:22;;;;;;;9.87;1.87;;;1.10;99.90;;;;;;4849726;29;20176;-95
2021/01/13 03:13:48;;;;;;;10.77;1.60;;;1.10;99.90;;;;;;4850043;29;20204;-94
2021/01/13 03:16:16;;;;;;;11.27;1.70;;;1.10;99.90;;;;;;4849107;29;20623;-96
2021/01/13 03:19:04;;;;;;;12.53;1.87;;;1.10;99.90;;;;;;4849366;29;20649;-95
2021/01/13 03:22:03;;;;;;;8.30;1.43;;;1.10;99.90;;;;;;4849044;29;20173;-95
2021/01/13 03:24:55;;;;;;;8.50;1.50;;;1.10;99.90;;;;;;4850955;29;20205;-96
2021/01/13 03:27:32;;;;;;;8.93;1.57;;;1.20;99.90;;;;;;4849200;29;20194;-95
2021/01/13 03:30:07;;;;;;;4.30;1.40;;;1.10;99.90;;;;;;4848431;29;20173;-95
2021/01/13 03:33:02;;;;;;;6.77;1.67;;;1.10;99.90;;;;;;4849203;29;20298;-94
2021/01/13 03:35:42;;;;;;;9.60;2.10;;;1.10;99.90;;;;;;4800770;29;20260;-94
2021/01/13 03:38:16;;;;;;;7.73;1.47;;;1.10;99.90;;;;;;4848785;29;20519;-95
2021/01/13 03:40:44;;;;;;;11.93;1.50;;;1.10;99.90;;;;;;4848713;29;20574;-93
2021/01/13 03:43:32;;;;;;;11.30;1.70;;;1.10;99.90;;;;;;4848483;29;20774;-94
2021/01/13 03:46:03;;;;;;;13.13;1.80;;;1.10;99.90;;;;;;4848704;29;20210;-94
2021/01/13 03:48:56;;;;;;;11.17;2.17;;;1.10;99.90;;;;;;4849205;29;20177;-93
2021/01/13 03:51:26;;;;;;;13.07;1.63;;;1.10;99.90;;;;;;4849099;29;20213;-92
2021/01/13 03:53:52;;;;;;;6.67;1.40;;;1.00;99.90;;;;;;4847990;29;20265;-92
2021/01/13 03:56:44;;;;;;;10.40;2.00;;;1.10;99.90;;;;;;4849423;29;20170;-93
2021/01/13 03:59:34;;;;;;;15.80;1.93;;;1.10;99.90;;;;;;4848125;29;20662;-95
2021/01/13 04:02:04;;;;;;;17.63;2.00;;;1.10;99.90;;;;;;4849985;29;20371;-93
2021/01/13 04:04:55;;;;;;;12.53;1.93;;;1.10;99.90;;;;;;4852017;29;20225;-93
2021/01/13 04:07:23;;;;;;;14.20;1.83;;;1.10;99.90;;;;;;4852317;29;20184;-93
2021/01/13 04:09:49;;;;;;;13.43;1.90;;;1.10;99.90;;;;;;4852161;29;20189;-94
2021/01/13 04:12:16;;;;;;;8.27;1.63;;;1.10;99.90;;;;;;4851911;29;20213;-95
2021/01/13 04:14:57;;;;;;;11.57;1.70;;;1.10;99.90;;;;;;4852737;29;20220;-96
2021/01/13 04:17:27;;;;;;;8.73;1.33;;;1.10;99.90;;;;;;4851046;29;20176;-93
2021/01/13 04:19:55;;;;;;;10.60;1.77;;;1.10;99.90;;;;;;4851682;29;20177;-93
2021/01/13 04:22:26;;;;;;;10.40;2.20;;;1.10;99.90;;;;;;4851361;29;20211;-95
2021/01/13 04:24:57;;;;;;;10.50;1.70;;;1.10;99.90;;;;;;4851379;29;20678;-93
2021/01/13 04:27:24;;;;;;;8.13;1.40;;;1.10;99.90;;;;;;4851327;29;20181;-94
2021/01/13 04:30:03;;;;;;;11.90;1.77;;;1.10;99.90;;;;;;4851677;29;20182;-94
2021/01/13 04:32:42;;;;;;;11.63;2.20;;;1.20;99.90;;;;;;4851040;29;20208;-94
2021/01/13 04:35:08;;;;;;;8.20;1.67;;;1.20;99.90;;;;;;4851330;29;20225;-95
2021/01/13 04:37:43;;;;;;;19.87;2.50;;;1.20;99.90;;;;;;4850814;29;20181;-93
2021/01/13 04:40:28;;;;;;;15.43;1.70;;;1.20;99.90;;;;;;4850859;29;20184;-92
2021/01/13 04:43:07;;;;;;;9.90;1.70;;;1.20;99.90;;;;;;4851115;29;20179;-94
2021/01/13 04:45:44;;;;;;;13.30;2.33;;;1.20;99.90;;;;;;4851261;29;20245;-93
2021/01/13 04:48:14;;;;;;;7.40;1.73;;;1.30;99.90;;;;;;4851232;29;20178;-92
2021/01/13 04:50:42;;;;;;;15.73;2.17;;;1.30;99.90;;;;;;4851292;29;20182;-93
2021/01/13 04:53:11;;;;;;;8.97;1.73;;;1.30;99.90;;;;;;4850688;29;20231;-94
2021/01/13 04:55:47;;;;;;;10.40;1.70;;;1.30;99.90;;;;;;4851014;29;20177;-93
2021/01/13 04:58:34;;;;;;;11.37;1.70;;;1.30;99.90;;;;;;4850923;29;20177;-95
2021/01/13 05:01:33;;;;;;;11.87;1.97;;;1.30;99.90;;;;;;4851206;29;20245;-92
2021/01/13 05:04:18;;;;;;;8.50;1.47;;;1.30;99.90;;;;;;4850532;29;20240;-93
2021/01/13 05:07:03;;;;;;;17.07;1.80;;;1.40;99.90;;;;;;4850819;29;20272;-93
2021/01/13 05:10:08;;;;;;;14.50;1.70;;;1.40;99.90;;;;;;4850341;29;20237;-94
2021/01/13 05:13:11;;;;;;;6.57;1.50;;;1.50;99.90;;;;;;4850449;29;20205;-93
2021/01/13 05:15:41;;;;;;;12.87;2.33;;;1.50;99.90;;;;;;4850742;29;20226;-93
2021/01/13 05:18:09;;;;;;;9.60;1.87;;;1.50;99.90;;;;;;4850489;29;20621;-93
2021/01/13 05:20:54;;;;;;;9.80;1.50;;;1.50;99.90;;;;;;4850421;29;20256;-94
2021/01/13 05:23:30;;;;;;;11.57;1.77;;;1.50;99.90;;;;;;4850533;29;20244;-95
2021/01/13 05:25:57;;;;;;;10.67;1.50;;;1.60;99.90;;;;;;4849668;29;20183;-93
2021/01/13 05:28:42;;;;;;;17.57;2.10;;;1.70;99.90;;;;;;4849176;29;20179;-94
2021/01/13 05:31:11;;;;;;;10.03;1.77;;;1.60;99.90;;;;;;4849536;29;20260;-94
2021/01/13 05:33:39;;;;;;;11.17;2.10;;;1.80;99.90;;;;;;4848545;29;20211;-94
2021/01/13 05:36:20;;;;;;;10.90;2.20;;;1.80;99.90;;;;;;4847735;29;20169;-94
2021/01/13 05:39:06;;;;;;;6.33;2.00;;;1.90;99.90;;;;;;4849001;29;20248;-92
2021/01/13 05:41:41;;;;;;;10.23;2.23;;;1.90;99.90;;;;;;4848737;29;20258;-93
2021/01/13 05:44:09;;;;;;;12.77;2.17;;;1.90;99.90;;;;;;4848599;29;20212;-93
2021/01/13 05:46:48;;;;;;;12.10;2.37;;;1.80;99.90;;;;;;4848117;29;20687;-93
2021/01/13 05:49:15;;;;;;;12.57;2.70;;;1.90;99.90;;;;;;4848315;29;20181;-95
2021/01/13 05:51:42;;;;;;;10.43;2.33;;;1.80;99.90;;;;;;4847980;29;20238;-95
2021/01/13 05:54:16;;;;;;;10.73;2.30;;;1.70;99.90;;;;;;4832526;29;20696;-95
2021/01/13 05:56:42;;;;;;;11.97;2.83;;;1.80;99.90;;;;;;4832397;29;20185;-94
2021/01/13 05:59:27;;;;;;;9.97;2.23;;;1.80;99.90;;;;;;4833690;29;20230;-95
2021/01/13 06:02:03;;;;;;;12.60;2.83;;;1.70;99.90;;;;;;4833017;29;20212;-95
2021/01/13 06:04:35;;;;;;;10.50;2.40;;;1.70;99.90;;;;;;4832476;29;20213;-94
2021/01/13 06:07:25;;;;;;;13.30;2.97;;;1.60;99.90;;;;;;4833683;29;20202;-94
2021/01/13 06:10:00;;;;;;;11.03;2.37;;;1.70;99.90;;;;;;4833219;29;20256;-93
2021/01/13 06:12:30;;;;;;;12.63;2.90;;;1.70;99.90;;;;;;4832416;29;20212;-95
2021/01/13 06:15:07;;;;;;;12.30;2.87;;;1.70;99.90;;;;;;4834178;29;20258;-94
2021/01/13 06:17:53;;;;;;;13.23;2.53;;;1.70;99.90;;;;;;4834430;29;20272;-95
2021/01/13 06:20:28;;;;;;;12.10;2.30;;;1.70;99.90;;;;;;4834551;29;20179;-94
2021/01/13 06:22:58;;;;;;;9.23;2.33;;;1.60;99.90;;;;;;4833614;29;20186;-94
2021/01/13 06:25:33;;;;;;;9.03;2.57;;;1.60;99.90;;;;;;4834429;29;20274;-93
2021/01/13 06:28:13;;;;;;;10.07;2.30;;;1.50;99.90;;;;;;4833340;29;20218;-94
2021/01/13 06:31:26;;;;;;;11.50;2.40;;;1.50;99.90;;;;;;4834141;29;20218;-95
2021/01/13 06:34:25;;;;;;;15.47;2.97;;;1.50;99.90;;;;;;4778909;30;20719;-94
2021/01/13 06:37:14;;;;;;;10.57;2.20;;;1.50;99.90;;;;;;4780023;30;20664;-95
2021/01/13 06:39:46;;;;;;;12.10;3.07;;;1.60;99.90;;;;;;4845424;29;20189;-93
2021/01/13 06:42:31;;;;;;;12.47;2.83;;;1.50;99.90;;;;;;4834333;29;20177;-94
2021/01/13 06:44:58;;;;;;;9.40;2.37;;;1.60;99.90;;;;;;4836918;29;20201;-96
2021/01/13 06:47:25;;;;;;;14.10;3.03;;;1.50;99.90;;;;;;4835508;29;20200;-96
2021/01/13 06:50:09;;;;;;;13.87;3.30;;;1.60;99.90;;;;;;4834539;29;20224;-96
2021/01/13 06:52:35;;;;;;;9.80;2.97;;;1.60;99.90;;;;;;4839501;29;20232;-96
2021/01/13 06:55:04;;;;;;;13.77;3.63;;;1.60;99.90;;;;;;4850891;29;20635;-94
2021/01/13 06:57:31;;;;;;;13.97;2.83;;;1.70;99.90;;;;;;4853523;29;20173;-95
2021/01/13 07:00:04;;;;;;;11.20;2.90;;;1.70;99.90;;;;;;4858220;29;20160;-96
2021/01/13 07:02:42;;;;;;;11.13;3.13;;;1.80;99.90;;;;;;4861720;29;20236;-96
2021/01/13 07:05:41;;;;;;;10.37;3.43;;;1.80;99.90;;;;;;4844857;29;20192;-95
2021/01/13 07:08:09;;;;;;;13.47;4.13;;;1.70;99.90;;;;;;4854308;29;20180;-95
2021/01/13 07:10:40;;;;;;;13.33;3.57;;;1.70;99.90;;;;;;4852504;29;20173;-96
2021/01/13 07:13:15;;;;;;;12.43;3.63;;;1.80;99.90;;;;;;4854713;29;20227;-94
2021/01/13 07:15:44;;;;;;;14.10;4.07;;;1.80;99.90;;;;;;4852761;29;20295;-96
2021/01/13 07:18:15;;;;;;;9.33;3.77;;;1.70;99.90;;;;;;4853227;29;20176;-95
2021/01/13 07:20:42;;;;;;;13.83;3.63;;;1.80;99.90;;;;;;4852916;29;20197;-95
2021/01/13 07:23:10;;;;;;;14.97;3.43;;;1.80;99.90;;;;;;4852552;29;20237;-96
2021/01/13 07:26:06;;;;;;;17.43;3.67;;;1.80;99.90;;;;;;4853734;29;20230;-96
2021/01/13 07:28:44;;;;;;;10.87;3.27;;;1.80;99.90;;;;;;4856846;29;20246;-96
2021/01/13 07:31:31;;;;;;;17.03;4.40;;;1.80;99.90;;;;;;4856777;29;20242;-96
2021/01/13 07:34:08;;;;;;;13.90;3.77;;;1.80;99.90;;;;;;4853837;29;20204;-96
2021/01/13 07:37:11;;;;;;;17.87;3.63;;;1.80;99.90;;;;;;4854289;29;20188;-94
2021/01/13 07:39:59;;;;;;;11.47;3.80;;;1.90;99.90;;;;;;4856864;29;20181;-95
2021/01/13 07:42:44;;;;;;;10.37;3.70;;;1.80;99.90;;;;;;4859133;29;20190;-95
2021/01/13 07:45:17;;;;;;;12.17;3.50;;;1.90;99.90;;;;;;4857702;29;20223;-95
2021/01/13 07:51:43;;;;;;;11.43;3.17;;;2.00;99.90;;;;;;4860119;29;20283;-95
2021/01/13 07:54:23;;;;;;;10.53;3.00;;;2.10;99.90;;;;;;4823905;29;20254;-95
2021/01/13 07:56:53;;;;;;;8.40;3.03;;;2.00;99.90;;;;;;4824483;29;20197;-96
2021/01/13 07:59:56;;;;;;;12.70;2.83;;;2.10;99.90;;;;;;4825955;29;20196;-96
2021/01/13 08:03:00;;;;;;;8.03;2.63;;;2.10;99.90;;;;;;4826843;29;20211;-96
2021/01/13 08:06:00;;;;;;;10.37;2.90;;;2.20;99.90;;;;;;4827692;29;20280;-95
2021/01/13 08:09:13;;;;;;;8.73;3.10;;;2.10;99.90;;;;;;4825995;29;20183;-96
2021/01/13 08:12:08;;;;;;;8.10;2.50;;;2.10;99.90;;;;;;4841161;29;20219;-95
2021/01/13 08:18:21;;;;;;;8.93;1.87;;;2.20;99.90;;;;;;4841822;29;20177;-95
2021/01/13 08:24:13;;;;;;;7.67;2.63;;;2.40;99.90;;;;;;4809374;29;20211;-95
2021/01/13 08:26:42;;;;;;;6.13;2.20;;;2.40;99.90;;;;;;4825484;29;20198;-94
2021/01/13 08:29:32;;;;;;;7.80;2.83;;;2.50;99.90;;;;;;4825394;29;20281;-95
2021/01/13 08:32:08;;;;;;;6.10;3.03;;;2.50;99.90;;;;;;4826391;29;20255;-95
2021/01/13 08:34:48;;;;;;;11.10;4.03;;;2.40;99.90;;;;;;4825456;29;20226;-96
2021/01/13 08:37:33;;;;;;;8.57;3.97;;;2.30;99.90;;;;;;4827397;29;20178;-95
2021/01/13 08:40:29;;;;;;;12.33;4.50;;;2.30;99.90;;;;;;4825706;29;20174;-95
2021/01/13 08:43:46;;;;;;;12.63;3.60;;;2.20;99.90;;;;;;4827951;29;20209;-94
2021/01/13 08:46:39;;;;;;;12.80;4.17;;;2.20;99.90;;;;;;4824783;29;20192;-96
2021/01/13 08:50:04;;;;;;;7.93;3.00;;;2.30;99.90;;;;;;4825280;29;20190;-95
2021/01/13 08:52:47;;;;;;;12.57;3.07;;;2.40;99.90;;;;;;4814962;29;20254;-95
2021/01/13 08:55:15;;;;;;;7.43;2.67;;;2.50;99.90;;;;;;4828262;29;20174;-95
2021/01/13 08:57:54;;;;;;;10.97;2.87;;;2.40;99.90;;;;;;4811585;29;20202;-96
2021/01/13 09:01:08;;;;;;;11.63;2.90;;;2.40;99.90;;;;;;4827453;29;20222;-94
2021/01/13 09:03:51;;;;;;;5.40;2.40;;;2.30;99.90;;;;;;4825705;29;20210;-95
2021/01/13 09:06:19;;;;;;;8.80;2.30;;;2.30;99.90;;;;;;4828193;29;20280;-95
2021/01/13 09:08:58;;;;;;;4.60;2.10;;;2.30;99.90;;;;;;4826772;29;20189;-96
2021/01/13 09:11:39;;;;;;;9.60;2.40;;;2.50;99.90;;;;;;4826647;29;20257;-96
2021/01/13 09:15:30;;;;;;;;;;;;;;;;;;;;;
2021/01/13 09:18:23;;;;;;;7.93;2.07;;;2.50;99.90;;;;;;4783802;29;20217;-96
2021/01/13 09:21:28;;;;;;;10.53;2.23;;;2.60;99.90;;;;;;4828225;29;20185;-96
2021/01/13 09:23:57;;;;;;;5.67;2.30;;;2.60;99.90;;;;;;4755139;30;20232;-96
2021/01/13 09:26:40;;;;;;;8.77;1.87;;;2.70;99.90;;;;;;4833220;29;20190;-96
2021/01/13 09:29:18;;;;;;;7.27;2.17;;;2.70;99.90;;;;;;4828580;29;20186;-96
2021/01/13 09:32:10;;;;;;;9.13;2.17;;;2.80;99.90;;;;;;4828537;29;20210;-96
2021/01/13 09:34:47;;;;;;;7.50;2.00;;;2.80;99.90;;;;;;4827526;29;20229;-96
2021/01/13 09:37:21;;;;;;;8.97;2.03;;;2.80;99.90;;;;;;4812602;29;20186;-96
2021/01/13 09:40:00;;;;;;;10.57;2.07;;;2.80;99.90;;;;;;4825339;29;20193;-96
2021/01/13 09:42:57;;;;;;;7.27;2.20;;;3.00;99.90;;;;;;4831701;29;20193;-96
2021/01/13 09:46:00;;;;;;;;;;;;;;;;;;;;;
2021/01/13 09:48:43;;;;;;;9.30;2.77;;;3.10;99.90;;;;;;4847000;29;20193;-96
2021/01/13 09:51:10;;;;;;;9.47;2.40;;;3.00;99.90;;;;;;4842117;29;20260;-96
2021/01/13 09:53:53;;;;;;;13.03;2.00;;;3.10;99.90;;;;;;4836586;29;20769;-96
2021/01/13 09:56:38;;;;;;;6.43;2.30;;;3.10;99.90;;;;;;4860000;29;20214;-96
2021/01/13 09:59:10;;;;;;;9.77;2.40;;;3.10;99.90;;;;;;4859681;29;20182;-96
2021/01/13 10:01:57;;;;;;;8.20;2.63;;;3.00;99.90;;;;;;4860906;29;20179;-96
2021/01/13 10:04:49;;;;;;;7.43;2.20;;;3.10;99.90;;;;;;4860623;29;20205;-96
2021/01/13 10:07:25;;;;;;;11.57;3.00;;;3.10;99.90;;;;;;4860583;29;20248;-96
2021/01/13 10:10:08;;;;;;;9.70;2.70;;;3.10;99.90;;;;;;4843676;29;20220;-95
2021/01/13 10:12:46;;;;;;;8.47;2.93;;;3.00;99.90;;;;;;4859557;29;20210;-96
2021/01/13 10:15:32;;;;;;;7.13;3.40;;;3.10;99.90;;;;;;4858476;29;20181;-96
2021/01/13 10:18:04;;;;;;;10.00;3.10;;;3.10;99.90;;;;;;4859021;29;20170;-96
2021/01/13 10:20:34;;;;;;;9.43;3.10;;;3.10;99.90;;;;;;4858331;29;20714;-96
2021/01/13 10:23:18;;;;;;;9.80;2.80;;;3.10;99.90;;;;;;4858663;29;20272;-96
2021/01/13 10:25:46;;;;;;;13.80;2.70;;;3.10;99.90;;;;;;4859883;29;20179;-96
2021/01/13 10:28:16;;;;;;;5.77;2.67;;;3.10;99.90;;;;;;4858668;29;20187;-96
2021/01/13 10:30:46;;;;;;;8.77;2.27;;;3.10;99.90;;;;;;4858646;29;20186;-96
2021/01/13 10:33:19;;;;;;;8.07;2.50;;;3.20;99.90;;;;;;4858733;29;20213;-96
2021/01/13 10:38:46;;;;;;;11.17;2.73;;;3.20;99.90;;;;;;4862980;29;20619;-95
2021/01/13 10:41:12;;;;;;;8.60;2.90;;;3.30;99.90;;;;;;4847270;29;20189;-95
2021/01/13 10:43:45;;;;;;;8.87;2.40;;;3.30;99.90;;;;;;4847238;29;20281;-96
2021/01/13 10:46:11;;;;;;;6.40;1.97;;;3.30;99.90;;;;;;4834778;29;20252;-96
2021/01/13 10:48:50;;;;;;;6.20;2.00;;;3.20;99.90;;;;;;4851343;29;20223;-95
2021/01/13 10:51:24;;;;;;;6.57;2.37;;;3.20;99.90;;;;;;4849366;29;20636;-96
2021/01/13 10:54:05;;;;;;;7.70;2.33;;;3.20;99.90;;;;;;4869061;29;20254;-95
2021/01/13 10:56:32;;;;;;;5.53;2.13;;;3.20;99.90;;;;;;4836700;29;20194;-96
2021/01/13 10:59:13;;;;;;;9.00;2.30;;;3.20;99.90;;;;;;4852275;29;20216;-96
2021/01/13 11:01:40;;;;;;;10.83;2.53;;;3.40;99.90;;;;;;4850961;29;20176;-96
2021/01/13 11:04:23;;;;;;;6.67;2.17;;;3.30;99.90;;;;;;4851235;29;20199;-96
2021/01/13 11:06:58;;;;;;;6.07;2.00;;;3.30;99.90;;;;;;4851640;29;20332;-94
2021/01/13 11:09:25;;;;;;;8.77;2.20;;;3.30;99.90;;;;;;4838218;29;20192;-96
2021/01/13 11:11:51;;;;;;;8.80;2.50;;;3.50;99.90;;;;;;4854782;29;20212;-95
2021/01/13 11:14:39;;;;;;;6.13;2.10;;;3.50;99.90;;;;;;4858743;29;20200;-96
2021/01/13 11:17:09;;;;;;;10.90;2.40;;;3.40;99.90;;;;;;4863702;29;20193;-96
2021/01/13 11:19:38;;;;;;;7.70;2.47;;;3.40;99.90;;;;;;4861207;29;20227;-95
2021/01/13 11:22:04;;;;;;;6.83;2.00;;;3.40;99.90;;;;;;4864103;29;20635;-96
2021/01/13 11:24:51;;;;;;;7.27;2.23;;;3.30;99.90;;;;;;4849468;29;20187;-95
2021/01/13 11:27:24;;;;;;;9.77;2.20;;;3.40;99.90;;;;;;4865182;29;20194;-96
2021/01/13 11:29:55;;;;;;;8.33;2.63;;;3.40;99.90;;;;;;4845454;29;20309;-95
2021/01/13 11:32:30;;;;;;;8.83;2.90;;;3.50;99.90;;;;;;4858886;29;20616;-94
2021/01/13 11:34:56;;;;;;;9.53;2.40;;;3.40;99.90;;;;;;4862136;29;20177;-94
2021/01/13 11:37:32;;;;;;;9.60;2.20;;;3.40;99.90;;;;;;4879801;29;20244;-94
2021/01/13 11:40:19;;;;;;;7.60;2.43;;;3.40;99.90;;;;;;4861419;29;20628;-96
2021/01/13 11:43:24;;;;;;;8.00;2.20;;;3.30;99.90;;;;;;4859988;29;20196;-96
2021/01/13 11:46:08;;;;;;;17.63;2.53;;;3.30;99.90;;;;;;4844506;29;20204;-94
2021/01/13 11:49:04;;;;;;;8.20;2.50;;;3.30;99.90;;;;;;4856569;29;20491;-94
2021/01/13 11:51:37;;;;;;;8.83;2.23;;;3.20;99.90;;;;;;4846426;29;20196;-96
2021/01/13 11:54:25;;;;;;;10.33;2.37;;;3.30;99.90;;;;;;4854998;29;20228;-96
2021/01/13 11:56:50;;;;;;;10.37;2.37;;;3.30;99.90;;;;;;4843403;29;20212;-96
2021/01/13 11:59:34;;;;;;;8.77;2.37;;;3.30;99.90;;;;;;4862152;29;20248;-96
2021/01/13 12:02:02;;;;;;;9.67;2.00;;;3.30;99.90;;;;;;4859882;29;20283;-93
2021/01/13 12:04:41;;;;;;;14.40;2.17;;;3.30;99.90;;;;;;4865066;29;20209;-94
2021/01/13 12:07:07;;;;;;;7.23;2.27;;;3.30;99.90;;;;;;4866227;29;20196;-94
2021/01/13 12:09:35;;;;;;;12.77;2.10;;;3.40;99.90;;;;;;4866998;29;20184;-95
2021/01/13 12:12:00;;;;;;;8.40;1.93;;;3.30;99.90;;;;;;4858835;29;20216;-96
2021/01/13 12:14:27;;;;;;;9.27;2.17;;;3.40;99.90;;;;;;4844818;29;20692;-95
2021/01/13 12:17:03;;;;;;;10.13;1.80;;;3.40;99.90;;;;;;4845734;29;20224;-94
2021/01/13 12:19:40;;;;;;;12.23;2.13;;;3.40;99.90;;;;;;4844305;29;20190;-95
2021/01/13 12:22:08;;;;;;;12.77;2.27;;;3.40;99.90;;;;;;4876135;24;20248;-94
2021/01/13 12:24:39;;;;;;;9.87;2.37;;;3.40;99.90;;;;;;4852444;29;20199;-95
2021/01/13 12:27:27;;;;;;;11.87;2.50;;;3.50;99.90;;;;;;4855131;29;20279;-95
2021/01/13 12:30:05;;;;;;;9.57;1.90;;;3.50;99.90;;;;;;4857476;29;20213;-94
2021/01/13 12:32:32;;;;;;;9.97;2.60;;;3.50;99.90;;;;;;4864108;29;20231;-95
2021/01/13 12:35:00;;;;;;;15.23;3.17;;;3.60;99.90;;;;;;4873899;29;20189;-94
2021/01/13 12:37:26;;;;;;;10.23;2.53;;;3.60;99.90;;;;;;4876231;29;20173;-94
2021/01/13 12:39:56;;;;;;;8.23;1.90;;;3.60;99.90;;;;;;4876965;29;20188;-93
2021/01/13 12:42:30;;;;;;;9.63;2.47;;;3.50;99.90;;;;;;4855928;29;20219;-94
2021/01/13 12:45:01;;;;;;;9.97;2.17;;;3.50;99.90;;;;;;4879313;29;20180;-93
2021/01/13 12:47:28;;;;;;;17.60;2.90;;;3.40;99.90;;;;;;4876181;29;20178;-93
2021/01/13 12:49:58;;;;;;;16.07;2.83;;;3.40;99.90;;;;;;4873412;29;20189;-94
2021/01/13 12:52:24;;;;;;;13.63;2.73;;;3.40;99.90;;;;;;4871671;29;20236;-93
2021/01/13 12:54:51;;;;;;;12.80;2.83;;;3.50;99.90;;;;;;4869299;29;20223;-95
2021/01/13 12:57:16;;;;;;;17.40;2.90;;;3.60;99.90;;;;;;4872742;29;20256;-94
2021/01/13 12:59:43;;;;;;;12.17;2.90;;;3.50;99.90;;;;;;4875476;29;20201;-94
2021/01/13 13:02:09;;;;;;;8.40;1.57;;;3.50;99.90;;;;;;4875249;29;20237;-93
2021/01/13 13:04:35;;;;;;;10.83;2.33;;;3.50;99.90;;;;;;4867570;29;20201;-94
2021/01/13 13:07:00;;;;;;;12.83;2.40;;;3.50;99.90;;;;;;4862011;29;20191;-93
2021/01/13 13:09:26;;;;;;;11.13;2.37;;;3.50;99.90;;;;;;4871130;29;20209;-95
2021/01/13 13:11:55;;;;;;;14.63;2.80;;;3.50;99.90;;;;;;4861671;29;20228;-94
2021/01/13 13:14:23;;;;;;;11.73;2.50;;;3.50;99.90;;;;;;4865506;29;20185;-95
2021/01/13 13:16:49;;;;;;;10.73;2.07;;;3.50;99.90;;;;;;4856737;29;20210;-92
2021/01/13 13:19:15;;;;;;;12.33;2.23;;;3.50;99.90;;;;;;4862384;29;20195;-93
2021/01/13 13:21:43;;;;;;;16.37;2.63;;;3.60;99.90;;;;;;4861982;29;20232;-95
2021/01/13 13:24:19;;;;;;;14.53;2.47;;;3.60;99.90;;;;;;4863454;29;20205;-92
2021/01/13 13:26:45;;;;;;;12.33;2.70;;;3.60;99.90;;;;;;4869504;29;20286;-92
2021/01/13 13:29:11;;;;;;;7.70;2.00;;;3.60;99.90;;;;;;4860816;29;20209;-95
2021/01/13 13:31:38;;;;;;;12.00;2.20;;;3.60;99.90;;;;;;4859911;29;20712;-95
2021/01/13 13:34:12;;;;;;;13.43;2.27;;;3.70;99.90;;;;;;4864333;29;20192;-93
2021/01/13 13:36:37;;;;;;;9.37;2.30;;;3.60;99.90;;;;;;4865795;29;20208;-95
2021/01/13 13:39:03;;;;;;;8.33;1.77;;;3.70;99.90;;;;;;4860934;29;20705;-94
2021/01/13 13:41:31;;;;;;;14.57;2.30;;;3.70;99.90;;;;;;4863356;29;20211;-95
2021/01/13 13:43:57;;;;;;;7.20;1.60;;;3.70;99.90;;;;;;4863154;29;20196;-95
2021/01/13 13:46:23;;;;;;;10.70;2.27;;;3.70;99.90;;;;;;4841044;29;20245;-94
2021/01/13 13:48:48;;;;;;;12.13;2.10;;;3.80;99.90;;;;;;4852849;29;20580;-95
2021/01/13 13:51:15;;;;;;;10.17;2.37;;;3.90;99.90;;;;;;4862038;29;20405;-92
2021/01/13 13:53:43;;;;;;;14.03;2.00;;;3.80;99.90;;;;;;4859831;29;20210;-94
2021/01/13 13:56:09;;;;;;;8.50;1.90;;;3.70;99.90;;;;;;4859214;29;20191;-93
2021/01/13 13:58:35;;;;;;;7.70;2.03;;;3.60;99.90;;;;;;4869378;29;20192;-94
2021/01/13 14:01:01;;;;;;;12.17;1.97;;;3.60;99.90;;;;;;4870386;29;20534;-96